Time;durP1;ratioP1;P1;durP2;ratioP2;P2;SDS_P1;SDS_P2;PMS_P1;PMS_P2;Temp;Humidity;BMP_temperature;BMP_pressure;BME280_temperature;BME280_humidity;BME280_pressure;Samples;Min_cycle;Max_cycle;Signal;HPM_P1;HPM_P2
2021/09/07 00:00:34;;;;;;;;;;;23.30;58.90;;;;;;4991247;28;20262;-67
2021/09/07 00:03:01;;;;;;;;;;;23.30;58.90;;;;;;4991232;28;20332;-67
2021/09/07 00:05:28;;;;;;;;;;;23.30;58.90;;;;;;4990121;28;20350;-67
2021/09/07 00:07:55;;;;;;;;;;;23.30;58.90;;;;;;4973562;28;20382;-66
2021/09/07 00:10:22;;;;;;;;;;;23.30;58.90;;;;;;4991069;28;19933;-67
2021/09/07 00:12:49;;;;;;;;;;;23.30;58.90;;;;;;4990762;28;20378;-67
2021/09/07 00:15:16;;;;;;;;;;;23.30;58.90;;;;;;4989804;28;19969;-67
2021/09/07 00:17:44;;;;;;;;;;;23.30;59.00;;;;;;4990547;28;20012;-67
2021/09/07 00:20:11;;;;;;;;;;;23.30;58.90;;;;;;4991239;28;19965;-67
2021/09/07 00:22:38;;;;;;;;;;;23.30;59.00;;;;;;4990998;28;19968;-67
2021/09/07 00:25:06;;;;;;;;;;;23.30;59.00;;;;;;5005951;28;19976;-67
2021/09/07 00:27:34;;;;;;;;;;;23.30;59.00;;;;;;4988640;28;19926;-67
2021/09/07 00:30:01;;;;;;;;;;;23.30;59.00;;;;;;4990777;28;20025;-66
2021/09/07 00:32:27;;;;;;;;;;;23.30;59.00;;;;;;4989792;28;20025;-67
2021/09/07 00:34:54;;;;;;;;;;;23.30;59.00;;;;;;4990592;28;19925;-67
2021/09/07 00:37:21;;;;;;;;;;;23.30;59.00;;;;;;4990707;28;19929;-67
2021/09/07 00:39:48;;;;;;;;;;;23.30;58.90;;;;;;4990440;28;20004;-67
2021/09/07 00:42:15;;;;;;;;;;;23.30;58.90;;;;;;4990391;28;20385;-67
2021/09/07 00:44:42;;;;;;;;;;;23.30;58.90;;;;;;4989508;28;19965;-67
2021/09/07 00:47:09;;;;;;;;;;;23.30;58.90;;;;;;4990378;28;20441;-67
2021/09/07 00:49:36;;;;;;;;;;;23.20;58.90;;;;;;4990620;28;19930;-67
2021/09/07 00:52:07;;;;;;;;;;;23.30;59.00;;;;;;4990201;28;19956;-66
2021/09/07 00:54:35;;;;;;;;;;;23.20;58.90;;;;;;4989850;28;19929;-67
2021/09/07 00:57:03;;;;;;;;;;;23.30;59.00;;;;;;4989040;28;19933;-66
2021/09/07 00:59:30;;;;;;;;;;;23.20;58.90;;;;;;4990431;28;19926;-66
2021/09/07 01:01:57;;;;;;;;;;;23.20;58.90;;;;;;4990433;28;20348;-67
2021/09/07 01:04:25;;;;;;;;;;;23.20;58.90;;;;;;4990504;28;20364;-67
2021/09/07 01:06:52;;;;;;;;;;;23.20;58.90;;;;;;4990323;28;19965;-67
2021/09/07 01:09:19;;;;;;;;;;;23.20;58.90;;;;;;4989983;28;19926;-67
2021/09/07 01:11:46;;;;;;;;;;;23.30;58.90;;;;;;4990370;28;19977;-67
2021/09/07 01:14:17;;;;;;;;;;;23.20;58.80;;;;;;4972882;28;20428;-66
2021/09/07 01:16:45;;;;;;;;;;;23.30;58.90;;;;;;4990158;28;19975;-67
2021/09/07 01:19:12;;;;;;;;;;;23.20;58.80;;;;;;4990235;28;20326;-67
2021/09/07 01:21:39;;;;;;;;;;;23.20;58.80;;;;;;4990129;28;19926;-67
2021/09/07 01:24:06;;;;;;;;;;;23.20;58.80;;;;;;4989323;28;19926;-67
2021/09/07 01:26:33;;;;;;;;;;;23.20;58.80;;;;;;4989076;28;19926;-67
2021/09/07 01:29:00;;;;;;;;;;;23.20;58.90;;;;;;4991940;28;19980;-67
2021/09/07 01:31:27;;;;;;;;;;;23.20;58.90;;;;;;4993230;28;19975;-67
2021/09/07 01:33:54;;;;;;;;;;;23.30;58.90;;;;;;4993536;28;20263;-67
2021/09/07 01:36:22;;;;;;;;;;;23.20;58.80;;;;;;4993177;28;19993;-66
2021/09/07 01:38:49;;;;;;;;;;;23.20;58.90;;;;;;4993463;28;19956;-67
2021/09/07 01:41:16;;;;;;;;;;;23.20;58.90;;;;;;4993033;28;20443;-67
2021/09/07 01:43:47;;;;;;;;;;;23.20;58.80;;;;;;4993138;28;19930;-66
2021/09/07 01:46:14;;;;;;;;;;;23.20;58.90;;;;;;4993009;28;19926;-67
2021/09/07 01:48:41;;;;;;;;;;;23.20;58.90;;;;;;4974991;28;19979;-67
2021/09/07 01:51:08;;;;;;;;;;;23.20;59.00;;;;;;4992036;28;20320;-67
2021/09/07 01:53:35;;;;;;;;;;;23.20;58.90;;;;;;4992851;28;19925;-67
2021/09/07 01:56:02;;;;;;;;;;;23.20;58.90;;;;;;4992438;28;19980;-66
2021/09/07 01:58:29;;;;;;;;;;;23.20;58.90;;;;;;4992001;28;20332;-67
2021/09/07 02:00:56;;;;;;;;;;;23.20;58.90;;;;;;4992036;28;19970;-66
2021/09/07 02:03:23;;;;;;;;;;;23.20;58.90;;;;;;4993229;28;19933;-67
2021/09/07 02:05:50;;;;;;;;;;;23.20;58.90;;;;;;4993037;28;19933;-67
2021/09/07 02:08:17;;;;;;;;;;;23.20;58.90;;;;;;4991705;28;20393;-67
2021/09/07 02:10:44;;;;;;;;;;;23.20;58.90;;;;;;4992970;28;20022;-67
2021/09/07 02:13:11;;;;;;;;;;;23.20;58.90;;;;;;4975951;28;20037;-67
2021/09/07 02:15:38;;;;;;;;;;;23.20;58.90;;;;;;4991912;28;20338;-67
2021/09/07 02:18:05;;;;;;;;;;;23.20;58.90;;;;;;4992223;28;20016;-67
2021/09/07 02:20:32;;;;;;;;;;;23.20;58.90;;;;;;4992675;28;19926;-67
2021/09/07 02:22:58;;;;;;;;;;;23.20;58.90;;;;;;4991381;28;19926;-67
2021/09/07 02:25:25;;;;;;;;;;;23.20;58.90;;;;;;4991710;28;19971;-67
2021/09/07 02:27:52;;;;;;;;;;;23.20;58.90;;;;;;4992534;28;19969;-67
2021/09/07 02:30:19;;;;;;;;;;;23.20;58.90;;;;;;4992544;28;19926;-66
2021/09/07 02:32:47;;;;;;;;;;;23.20;58.90;;;;;;4992752;28;19965;-67
2021/09/07 02:35:14;;;;;;;;;;;23.20;58.90;;;;;;4991999;28;19975;-67
2021/09/07 02:37:41;;;;;;;;;;;23.20;58.90;;;;;;4991599;28;19994;-67
2021/09/07 02:40:09;;;;;;;;;;;23.20;58.90;;;;;;4992093;28;20008;-66
2021/09/07 02:42:36;;;;;;;;;;;23.20;58.90;;;;;;4992163;28;19929;-66
2021/09/07 02:45:03;;;;;;;;;;;23.20;58.90;;;;;;4991273;28;19926;-67
2021/09/07 02:47:30;;;;;;;;;;;23.20;58.90;;;;;;4992086;28;19930;-67
2021/09/07 02:49:57;;;;;;;;;;;23.20;58.90;;;;;;4992241;28;19973;-67
2021/09/07 02:52:24;;;;;;;;;;;23.20;58.90;;;;;;4992267;28;19981;-67
2021/09/07 02:54:51;;;;;;;;;;;23.20;58.80;;;;;;4991888;28;19988;-67
2021/09/07 02:57:18;;;;;;;;;;;23.20;58.80;;;;;;4990690;28;19934;-67
2021/09/07 02:59:47;;;;;;;;;;;23.20;58.90;;;;;;4992354;28;19930;-67
2021/09/07 03:02:20;;;;;;;;;;;23.20;58.90;;;;;;4991187;28;20250;-67
2021/09/07 03:04:47;;;;;;;;;;;23.20;58.90;;;;;;4990809;28;20373;-66
2021/09/07 03:07:14;;;;;;;;;;;23.20;58.90;;;;;;4992083;28;20012;-67
2021/09/07 03:09:41;;;;;;;;;;;23.20;58.80;;;;;;4991693;28;19991;-67
2021/09/07 03:12:08;;;;;;;;;;;23.20;58.80;;;;;;4992010;28;19926;-66
2021/09/07 03:14:35;;;;;;;;;;;23.20;58.80;;;;;;4991729;28;19926;-66
2021/09/07 03:17:02;;;;;;;;;;;23.20;58.80;;;;;;4990729;28;19934;-67
2021/09/07 03:19:28;;;;;;;;;;;23.20;58.80;;;;;;4992005;28;19925;-67
2021/09/07 03:21:55;;;;;;;;;;;23.20;58.80;;;;;;4991953;28;20282;-66
2021/09/07 03:24:22;;;;;;;;;;;23.20;58.80;;;;;;4990877;28;19976;-67
2021/09/07 03:26:49;;;;;;;;;;;23.20;59.40;;;;;;4990741;28;19969;-66
2021/09/07 03:29:16;;;;;;;;;;;23.20;58.80;;;;;;4991401;28;19929;-67
2021/09/07 03:31:43;;;;;;;;;;;23.10;58.80;;;;;;4990659;28;20319;-67
2021/09/07 03:34:10;;;;;;;;;;;23.20;58.80;;;;;;4990610;28;19991;-67
2021/09/07 03:36:37;;;;;;;;;;;23.20;58.80;;;;;;4991565;28;20322;-67
2021/09/07 03:39:04;;;;;;;;;;;23.10;58.80;;;;;;4991275;28;19929;-67
2021/09/07 03:41:31;;;;;;;;;;;23.10;58.80;;;;;;4991184;28;19937;-67
2021/09/07 03:43:58;;;;;;;;;;;23.20;58.80;;;;;;4991091;28;19926;-67
2021/09/07 03:46:25;;;;;;;;;;;23.10;58.70;;;;;;4991192;28;19926;-66
2021/09/07 03:48:52;;;;;;;;;;;23.20;58.80;;;;;;4991192;28;19926;-67
2021/09/07 03:51:19;;;;;;;;;;;23.10;58.80;;;;;;4990580;28;19926;-67
2021/09/07 03:53:47;;;;;;;;;;;23.10;58.80;;;;;;4990954;28;20304;-67
2021/09/07 03:56:16;;;;;;;;;;;23.10;59.30;;;;;;4989771;28;19975;-67
2021/09/07 03:58:43;;;;;;;;;;;23.10;58.70;;;;;;4991354;28;19972;-67
2021/09/07 04:01:10;;;;;;;;;;;23.10;58.70;;;;;;4990156;28;19991;-68
2021/09/07 04:03:37;;;;;;;;;;;23.10;58.70;;;;;;4991378;28;19932;-68
2021/09/07 04:06:04;;;;;;;;;;;23.10;58.80;;;;;;4973109;28;19951;-67
2021/09/07 04:08:31;;;;;;;;;;;23.10;58.80;;;;;;4991078;28;19929;-67
2021/09/07 04:10:58;;;;;;;;;;;23.10;58.80;;;;;;4990768;28;19972;-67
2021/09/07 04:13:25;;;;;;;;;;;23.10;59.30;;;;;;4989934;28;19976;-67
2021/09/07 04:15:52;;;;;;;;;;;23.10;58.70;;;;;;4991182;28;19979;-67
2021/09/07 04:18:19;;;;;;;;;;;23.10;58.80;;;;;;4990051;28;19925;-67
2021/09/07 04:20:46;;;;;;;;;;;23.10;58.80;;;;;;4989978;28;19930;-67
2021/09/07 04:23:13;;;;;;;;;;;23.10;58.70;;;;;;4990732;28;19926;-68
2021/09/07 04:25:40;;;;;;;;;;;23.10;58.70;;;;;;4989501;28;19961;-67
2021/09/07 04:28:07;;;;;;;;;;;23.10;58.70;;;;;;4990741;28;19961;-67
2021/09/07 04:30:34;;;;;;;;;;;23.10;58.70;;;;;;4990561;28;19976;-67
2021/09/07 04:33:01;;;;;;;;;;;23.10;58.70;;;;;;4989613;28;19983;-67
2021/09/07 04:35:27;;;;;;;;;;;23.20;58.80;;;;;;4990574;28;20398;-67
2021/09/07 04:37:54;;;;;;;;;;;23.10;58.60;;;;;;4989417;28;20439;-66
2021/09/07 04:40:21;;;;;;;;;;;23.10;58.60;;;;;;4990376;28;19947;-67
2021/09/07 04:42:49;;;;;;;;;;;23.10;58.60;;;;;;4991006;28;19925;-67
2021/09/07 04:45:16;;;;;;;;;;;23.10;58.60;;;;;;4989254;28;20404;-67
2021/09/07 04:47:42;;;;;;;;;;;23.20;58.70;;;;;;4989610;28;20327;-67
2021/09/07 04:50:09;;;;;;;;;;;23.20;58.70;;;;;;4990539;28;20037;-67
2021/09/07 04:52:36;;;;;;;;;;;23.20;58.60;;;;;;4989282;28;19926;-67
2021/09/07 04:55:04;;;;;;;;;;;23.10;58.60;;;;;;4989293;28;19926;-67
2021/09/07 04:57:32;;;;;;;;;;;23.20;58.60;;;;;;4990281;28;19930;-67
2021/09/07 04:59:59;;;;;;;;;;;23.20;58.60;;;;;;4990344;28;19971;-67
2021/09/07 05:02:26;;;;;;;;;;;23.20;58.60;;;;;;4990544;28;19933;-67
2021/09/07 05:04:53;;;;;;;;;;;23.20;58.60;;;;;;4992303;28;19989;-67
2021/09/07 05:07:20;;;;;;;;;;;23.20;58.50;;;;;;4994130;28;19926;-68
2021/09/07 05:09:47;;;;;;;;;;;23.20;58.60;;;;;;4975641;28;19933;-68
2021/09/07 05:12:14;;;;;;;;;;;23.20;59.10;;;;;;4993415;28;19926;-67
2021/09/07 05:14:43;;;;;;;;;;;23.20;58.50;;;;;;4975096;28;19925;-67
2021/09/07 05:17:11;;;;;;;;;;;23.20;58.40;;;;;;4992316;28;20293;-67
2021/09/07 05:19:38;;;;;;;;;;;23.20;58.40;;;;;;4992357;28;19926;-67
2021/09/07 05:22:05;;;;;;;;;;;23.20;58.40;;;;;;4993655;28;19969;-67
2021/09/07 05:24:32;;;;;;;;;;;23.20;58.40;;;;;;4993123;28;19926;-68
2021/09/07 05:26:59;;;;;;;;;;;23.20;58.40;;;;;;4993535;28;19966;-67
2021/09/07 05:29:26;;;;;;;;;;;23.20;58.30;;;;;;4993260;28;19975;-67
2021/09/07 05:31:53;;;;;;;;;;;23.20;58.30;;;;;;4992310;28;19980;-67
2021/09/07 05:34:20;;;;;;;;;;;23.20;58.30;;;;;;4992170;28;19965;-67
2021/09/07 05:36:46;;;;;;;;;;;23.30;58.30;;;;;;4993633;28;19926;-67
2021/09/07 05:39:13;;;;;;;;;;;23.30;58.20;;;;;;4993022;28;20020;-67
2021/09/07 05:41:40;;;;;;;;;;;23.30;58.20;;;;;;4993488;28;19990;-67
2021/09/07 05:44:07;;;;;;;;;;;23.30;58.20;;;;;;4991892;28;19932;-68
2021/09/07 05:46:35;;;;;;;;;;;23.30;58.10;;;;;;4993245;28;19933;-67
2021/09/07 05:49:02;;;;;;;;;;;23.30;58.10;;;;;;4993025;28;19926;-67
2021/09/07 05:51:29;;;;;;;;;;;23.30;58.00;;;;;;4993213;28;20330;-67
2021/09/07 05:53:56;;;;;;;;;;;23.30;58.00;;;;;;4993240;28;20343;-67
2021/09/07 05:56:23;;;;;;;;;;;23.30;58.00;;;;;;4992312;28;19926;-67
2021/09/07 05:58:50;;;;;;;;;;;23.40;58.60;;;;;;4993383;28;20436;-67
2021/09/07 06:01:17;;;;;;;;;;;23.40;57.90;;;;;;4992058;28;19933;-67
2021/09/07 06:03:44;;;;;;;;;;;23.40;57.90;;;;;;4992670;28;19933;-68
2021/09/07 06:06:12;;;;;;;;;;;23.40;57.80;;;;;;4992688;28;19933;-67
2021/09/07 06:08:40;;;;;;;;;;;23.50;57.80;;;;;;4992805;28;20012;-67
2021/09/07 06:11:07;;;;;;;;;;;23.50;57.70;;;;;;4992573;28;19933;-67
2021/09/07 06:13:34;;;;;;;;;;;23.50;57.70;;;;;;4991402;28;19933;-67
2021/09/07 06:16:01;;;;;;;;;;;23.50;57.60;;;;;;4991560;28;19926;-67
2021/09/07 06:18:28;;;;;;;;;;;23.50;57.60;;;;;;4991523;28;20408;-67
2021/09/07 06:20:56;;;;;;;;;;;23.50;58.10;;;;;;4992052;28;19929;-67
2021/09/07 06:23:23;;;;;;;;;;;23.50;57.50;;;;;;4991250;28;20377;-67
2021/09/07 06:25:50;;;;;;;;;;;23.60;57.50;;;;;;4992353;28;19991;-67
2021/09/07 06:28:18;;;;;;;;;;;23.60;57.50;;;;;;4992504;28;20292;-67
2021/09/07 06:30:45;;;;;;;;;;;23.60;57.40;;;;;;4992302;28;19926;-67
2021/09/07 06:33:12;;;;;;;;;;;23.60;57.30;;;;;;4992733;28;19926;-67
2021/09/07 06:35:39;;;;;;;;;;;23.60;57.30;;;;;;4975129;28;19979;-67
2021/09/07 06:38:06;;;;;;;;;;;23.70;57.30;;;;;;4991399;28;19991;-67
2021/09/07 06:40:33;;;;;;;;;;;23.70;57.30;;;;;;4992490;28;19933;-67
2021/09/07 06:43:00;;;;;;;;;;;23.70;57.30;;;;;;4992400;28;19932;-67
2021/09/07 06:45:27;;;;;;;;;;;23.70;57.20;;;;;;4992082;28;19929;-67
2021/09/07 06:47:54;;;;;;;;;;;23.70;57.20;;;;;;4992180;28;19969;-68
2021/09/07 06:50:21;;;;;;;;;;;23.70;57.20;;;;;;4991707;28;19979;-67
2021/09/07 06:52:48;;;;;;;;;;;23.70;57.10;;;;;;4991936;28;19971;-67
2021/09/07 06:55:15;;;;;;;;;;;23.70;57.10;;;;;;4992147;28;19925;-67
2021/09/07 06:57:42;;;;;;;;;;;23.70;57.10;;;;;;4992097;28;19926;-67
2021/09/07 07:00:09;;;;;;;;;;;23.70;57.10;;;;;;4991782;28;20370;-67
2021/09/07 07:02:40;;;;;;;;;;;23.70;57.10;;;;;;4991889;28;19956;-67
2021/09/07 07:05:08;;;;;;;;;;;23.70;57.10;;;;;;4990749;28;20404;-67
2021/09/07 07:07:35;;;;;;;;;;;23.70;57.70;;;;;;4990847;28;19926;-67
2021/09/07 07:10:02;;;;;;;;;;;23.70;57.00;;;;;;4991715;28;19975;-67
2021/09/07 07:12:30;;;;;;;;;;;23.80;57.10;;;;;;4990533;28;19926;-67
2021/09/07 07:14:57;;;;;;;;;;;23.80;57.00;;;;;;4990380;28;19930;-68
2021/09/07 07:17:24;;;;;;;;;;;23.80;57.00;;;;;;4991446;28;19983;-67
2021/09/07 07:19:51;;;;;;;;;;;23.80;57.00;;;;;;4990596;28;19953;-67
2021/09/07 07:22:20;;;;;;;;;;;23.80;56.90;;;;;;4991372;28;19973;-67
2021/09/07 07:24:47;;;;;;;;;;;23.80;56.90;;;;;;4991923;28;19930;-68
2021/09/07 07:27:14;;;;;;;;;;;23.90;56.90;;;;;;4989317;28;20389;-68
2021/09/07 07:29:41;;;;;;;;;;;23.90;56.90;;;;;;4990492;28;19925;-67
2021/09/07 07:32:08;;;;;;;;;;;23.90;56.80;;;;;;4991566;28;20362;-67
2021/09/07 07:34:35;;;;;;;;;;;23.90;56.80;;;;;;4990252;28;19926;-67
2021/09/07 07:37:05;;;;;;;;;;;23.90;56.70;;;;;;4990558;28;19968;-67
2021/09/07 07:39:33;;;;;;;;;;;23.90;56.70;;;;;;4991224;28;20381;-67
2021/09/07 07:42:00;;;;;;;;;;;23.90;56.70;;;;;;4991178;28;19933;-67
2021/09/07 07:44:27;;;;;;;;;;;23.90;56.70;;;;;;4991093;28;19975;-67
2021/09/07 07:46:54;;;;;;;;;;;23.90;56.70;;;;;;4990179;28;19935;-67
2021/09/07 07:49:21;;;;;;;;;;;23.90;56.60;;;;;;4991481;28;19925;-67
2021/09/07 07:51:49;;;;;;;;;;;24.00;56.70;;;;;;4991060;28;19972;-67
2021/09/07 07:54:16;;;;;;;;;;;24.00;56.60;;;;;;4991240;28;20292;-67
2021/09/07 07:56:43;;;;;;;;;;;24.00;56.50;;;;;;4990063;28;19926;-67
2021/09/07 07:59:10;;;;;;;;;;;24.00;56.40;;;;;;4990136;28;20196;-67
2021/09/07 08:01:37;;;;;;;;;;;24.10;56.50;;;;;;4991333;28;19926;-67
2021/09/07 08:04:07;;;;;;;;;;;24.10;56.50;;;;;;4989743;28;19933;-68
2021/09/07 08:06:35;;;;;;;;;;;24.10;56.50;;;;;;4989765;28;20024;-67
2021/09/07 08:09:02;;;;;;;;;;;24.10;56.40;;;;;;4989846;28;19926;-68
2021/09/07 08:11:29;;;;;;;;;;;24.10;56.40;;;;;;4989569;28;20309;-67
2021/09/07 08:13:56;;;;;;;;;;;24.10;56.40;;;;;;4990470;28;19990;-67
2021/09/07 08:16:23;;;;;;;;;;;24.10;56.30;;;;;;4989593;28;19926;-67
2021/09/07 08:18:50;;;;;;;;;;;24.10;56.30;;;;;;4989486;28;19957;-67
2021/09/07 08:21:17;;;;;;;;;;;24.10;56.30;;;;;;4990599;28;19973;-67
2021/09/07 08:23:44;;;;;;;;;;;24.20;56.30;;;;;;4989578;28;19980;-67
2021/09/07 08:26:11;;;;;;;;;;;24.20;56.10;;;;;;4989540;28;20385;-67
2021/09/07 08:28:38;;;;;;;;;;;24.30;56.10;;;;;;4990781;28;19979;-68
2021/09/07 08:31:05;;;;;;;;;;;24.30;56.10;;;;;;4989293;28;19933;-67
2021/09/07 08:33:32;;;;;;;;;;;24.30;56.00;;;;;;4989385;28;19934;-67
2021/09/07 08:35:59;;;;;;;;;;;24.30;56.10;;;;;;4977095;28;20374;-67
2021/09/07 08:38:27;;;;;;;;;;;24.30;56.40;;;;;;4988161;28;19926;-67
2021/09/07 08:40:54;;;;;;;;;;;24.30;56.50;;;;;;4984619;28;19984;-68
2021/09/07 08:43:20;;;;;;;;;;;24.20;56.40;;;;;;4979208;28;19983;-67
2021/09/07 08:45:51;;;;;;;;;;;24.20;57.20;;;;;;4989537;28;19972;-67
2021/09/07 08:48:21;;;;;;;;;;;24.10;56.50;;;;;;4988576;28;19933;-68
2021/09/07 08:50:48;;;;;;;;;;;24.10;56.80;;;;;;4989150;28;19969;-67
2021/09/07 08:53:28;;;;;;;;;;;24.10;56.90;;;;;;4975005;28;19926;-68
2021/09/07 08:55:55;;;;;;;;;;;24.10;57.00;;;;;;4987283;28;19926;-62
2021/09/07 08:58:23;;;;;;;;;;;24.10;57.10;;;;;;4988575;28;20025;-67
2021/09/07 09:00:50;;;;;;;;;;;24.10;56.90;;;;;;4989677;28;19926;-68
2021/09/07 09:03:17;;;;;;;;;;;24.10;56.90;;;;;;4990086;28;20300;-68
2021/09/07 09:05:46;;;;;;;;;;;24.10;57.00;;;;;;4989074;28;20020;-67
2021/09/07 09:08:14;;;;;;;;;;;24.10;57.10;;;;;;4988679;28;20385;-67
2021/09/07 09:10:45;;;;;;;;;;;24.10;57.00;;;;;;4988171;28;19933;-67
2021/09/07 09:13:15;;;;;;;;;;;24.10;57.20;;;;;;4988777;28;19987;-67
2021/09/07 09:16:04;;;;;;;;;;;24.20;57.20;;;;;;4994215;28;19929;-67
2021/09/07 09:18:33;;;;;;;;;;;24.30;57.00;;;;;;4988575;28;19925;-68
2021/09/07 09:21:18;;;;;;;;;;;24.30;56.90;;;;;;4989008;28;19976;-68
2021/09/07 09:24:05;;;;;;;;;;;24.40;56.80;;;;;;4988357;28;19965;-67
2021/09/07 09:26:48;;;;;;;;;;;24.40;56.70;;;;;;4988953;28;19961;-67
2021/09/07 09:29:19;;;;;;;;;;;24.40;56.50;;;;;;4985397;28;19984;-68
2021/09/07 09:31:53;;;;;;;;;;;24.40;56.40;;;;;;4988936;28;19926;-67
2021/09/07 09:34:20;;;;;;;;;;;24.40;56.50;;;;;;4989975;28;20334;-67
2021/09/07 09:37:05;;;;;;;;;;;24.50;56.50;;;;;;4977396;28;19926;-67
2021/09/07 09:39:41;;;;;;;;;;;24.40;56.40;;;;;;4982855;28;19980;-67
2021/09/07 09:42:09;;;;;;;;;;;24.40;56.50;;;;;;4987722;28;20021;-67
2021/09/07 09:44:37;;;;;;;;;;;24.50;56.50;;;;;;4986782;28;20456;-68
2021/09/07 09:47:04;;;;;;;;;;;24.50;56.50;;;;;;4974487;28;20343;-67
2021/09/07 09:49:32;;;;;;;;;;;24.50;56.50;;;;;;4988792;28;20020;-67
2021/09/07 09:52:03;;;;;;;;;;;24.50;56.50;;;;;;4992036;28;19926;-67
2021/09/07 09:54:31;;;;;;;;;;;24.40;56.50;;;;;;4990085;28;19975;-67
2021/09/07 09:56:58;;;;;;;;;;;24.40;56.40;;;;;;4989660;28;19999;-67
2021/09/07 09:59:28;;;;;;;;;;;24.40;56.50;;;;;;4992911;28;19973;-68
2021/09/07 10:01:56;;;;;;;;;;;24.40;56.40;;;;;;4983873;28;19930;-68
2021/09/07 10:04:24;;;;;;;;;;;24.50;56.50;;;;;;4989714;28;19926;-67
2021/09/07 10:06:51;;;;;;;;;;;24.50;56.60;;;;;;4991484;28;19987;-67
2021/09/07 10:09:19;;;;;;;;;;;24.50;56.60;;;;;;4992634;28;20315;-67
2021/09/07 10:11:51;;;;;;;;;;;24.50;56.80;;;;;;4991289;28;19933;-67
2021/09/07 10:14:20;;;;;;;;;;;24.40;56.80;;;;;;4974083;28;20299;-67
2021/09/07 10:16:57;;;;;;;;;;;24.40;56.90;;;;;;4990082;28;19937;-67
2021/09/07 10:19:43;;;;;;;;;;;24.40;57.00;;;;;;4990280;28;19932;-67
2021/09/07 10:24:58;;;;;;;;;;;24.40;57.10;;;;;;4992265;28;19926;-67
2021/09/07 10:27:45;;;;;;;;;;;24.40;57.10;;;;;;4991505;28;19934;-68
2021/09/07 10:30:32;;;;;;;;;;;24.40;57.10;;;;;;4995690;28;19926;-68
2021/09/07 10:33:18;;;;;;;;;;;24.40;57.20;;;;;;4991690;28;19973;-67
2021/09/07 10:36:03;;;;;;;;;;;24.40;57.10;;;;;;4989790;28;20005;-67
2021/09/07 10:39:01;;;;;;;;;;;24.40;57.20;;;;;;4985269;28;19929;-68
2021/09/07 10:41:28;;;;;;;;;;;24.40;57.30;;;;;;4984616;28;19925;-67
2021/09/07 10:43:55;;;;;;;;;;;24.40;57.20;;;;;;4990126;28;19976;-67
2021/09/07 10:46:38;;;;;;;;;;;24.40;57.20;;;;;;4995199;28;19926;-67
2021/09/07 10:49:25;;;;;;;;;;;24.40;57.20;;;;;;4990925;28;20021;-67
2021/09/07 10:52:04;;;;;;;;;;;24.40;57.30;;;;;;4994766;28;19925;-68
2021/09/07 10:54:32;;;;;;;;;;;24.40;57.30;;;;;;4984452;28;20033;-67
2021/09/07 10:56:59;;;;;;;;;;;24.40;57.40;;;;;;4983873;28;20305;-68
2021/09/07 10:59:46;;;;;;;;;;;24.40;57.40;;;;;;4978577;28;19933;-68
2021/09/07 11:02:32;;;;;;;;;;;24.50;57.40;;;;;;4991096;28;19926;-68
2021/09/07 11:05:17;;;;;;;;;;;24.50;57.20;;;;;;4990297;28;20382;-68
2021/09/07 11:07:46;;;;;;;;;;;24.50;57.10;;;;;;4978135;28;20293;-68
2021/09/07 11:10:19;;;;;;;;;;;24.50;57.10;;;;;;4991111;28;19925;-67
2021/09/07 11:13:06;;;;;;;;;;;24.50;57.10;;;;;;4991700;28;20375;-68
2021/09/07 11:15:37;;;;;;;;;;;24.50;57.00;;;;;;4982332;28;19973;-68
2021/09/07 11:18:08;;;;;;;;;;;24.50;57.00;;;;;;4977666;28;20074;-67
2021/09/07 11:20:36;;;;;;;;;;;24.50;56.90;;;;;;5006347;28;20282;-67
2021/09/07 11:23:07;;;;;;;;;;;24.50;56.80;;;;;;4980489;28;19926;-67
2021/09/07 11:25:34;;;;;;;;;;;24.60;56.80;;;;;;4985829;28;19954;-66
2021/09/07 11:28:02;;;;;;;;;;;24.60;56.70;;;;;;4982645;28;19933;-67
2021/09/07 11:30:30;;;;;;;;;;;24.60;56.60;;;;;;4978693;28;20340;-68
2021/09/07 11:33:01;;;;;;;;;;;24.60;56.50;;;;;;4990540;28;19926;-67
2021/09/07 11:35:29;;;;;;;;;;;24.70;56.50;;;;;;4989428;28;19926;-67
2021/09/07 11:37:57;;;;;;;;;;;24.70;56.40;;;;;;4988949;28;20582;-67
2021/09/07 11:40:24;;;;;;;;;;;24.70;56.50;;;;;;4982475;28;19969;-67
2021/09/07 11:42:51;;;;;;;;;;;24.60;56.40;;;;;;4990074;28;20397;-68
2021/09/07 11:45:19;;;;;;;;;;;24.60;56.40;;;;;;4979600;28;20021;-68
2021/09/07 11:47:46;;;;;;;;;;;24.60;56.40;;;;;;4982183;28;19926;-68
2021/09/07 11:50:17;;;;;;;;;;;24.60;56.40;;;;;;4985605;28;19980;-68
2021/09/07 11:52:46;;;;;;;;;;;24.60;56.30;;;;;;4990431;28;19924;-68
2021/09/07 11:55:31;;;;;;;;;;;24.70;56.40;;;;;;4985139;28;19937;-68
2021/09/07 11:57:58;;;;;;;;;;;24.70;56.30;;;;;;4986364;28;19947;-67
2021/09/07 12:00:26;;;;;;;;;;;24.70;56.30;;;;;;4990445;28;19933;-68
2021/09/07 12:03:30;;;;;;;;;;;24.70;56.30;;;;;;4982593;28;19933;-67
2021/09/07 12:06:04;;;;;;;;;;;24.70;56.30;;;;;;4995504;28;19925;-67
2021/09/07 12:08:41;;;;;;;;;;;24.60;56.30;;;;;;4994443;28;20010;-67
2021/09/07 12:11:13;;;;;;;;;;;24.70;56.30;;;;;;4998120;28;19961;-68
2021/09/07 12:13:40;;;;;;;;;;;24.70;56.30;;;;;;5006788;28;19980;-67
2021/09/07 12:16:08;;;;;;;;;;;24.70;56.30;;;;;;5010280;28;19925;-67
2021/09/07 12:18:36;;;;;;;;;;;24.70;56.50;;;;;;5006390;28;20417;-68
2021/09/07 12:21:13;;;;;;;;;;;24.70;56.60;;;;;;4992200;28;19926;-67
2021/09/07 12:23:48;;;;;;;;;;;24.70;56.80;;;;;;5004155;28;19992;-67
2021/09/07 12:26:15;;;;;;;;;;;24.70;56.80;;;;;;4997123;28;19926;-67
2021/09/07 12:28:42;;;;;;;;;;;24.70;56.90;;;;;;5008093;28;19926;-67
2021/09/07 12:31:10;;;;;;;;;;;24.70;57.00;;;;;;5009307;28;20369;-67
2021/09/07 12:33:44;;;;;;;;;;;24.70;57.00;;;;;;5006211;28;20409;-67
2021/09/07 12:36:11;;;;;;;;;;;24.80;57.10;;;;;;5004520;28;19933;-67
2021/09/07 12:38:39;;;;;;;;;;;24.80;57.20;;;;;;4995638;28;19929;-67
2021/09/07 12:41:08;;;;;;;;;;;24.70;57.10;;;;;;4989275;28;19926;-68
2021/09/07 12:43:39;;;;;;;;;;;24.80;57.20;;;;;;4989898;28;20448;-67
2021/09/07 12:46:07;;;;;;;;;;;24.80;57.20;;;;;;4989298;28;19972;-67
2021/09/07 12:48:35;;;;;;;;;;;24.80;57.20;;;;;;4988447;28;20301;-67
2021/09/07 12:51:03;;;;;;;;;;;24.80;57.30;;;;;;4987125;28;19998;-67
2021/09/07 12:53:36;;;;;;;;;;;24.80;57.30;;;;;;4981181;28;19926;-68
2021/09/07 12:56:04;;;;;;;;;;;24.80;57.40;;;;;;4994461;28;19945;-67
2021/09/07 12:58:32;;;;;;;;;;;24.80;57.40;;;;;;4988233;28;19929;-67
2021/09/07 13:01:00;;;;;;;;;;;24.80;57.40;;;;;;4985691;28;19933;-67
2021/09/07 13:03:28;;;;;;;;;;;24.80;57.50;;;;;;4988351;28;19926;-67
2021/09/07 13:05:56;;;;;;;;;;;24.80;57.50;;;;;;4988589;28;19934;-67
2021/09/07 13:08:23;;;;;;;;;;;24.80;57.50;;;;;;4978052;28;19930;-68
2021/09/07 13:10:50;;;;;;;;;;;24.80;57.60;;;;;;4987456;28;19937;-67
2021/09/07 13:13:17;;;;;;;;;;;24.80;57.50;;;;;;4994075;28;19991;-67
2021/09/07 13:15:45;;;;;;;;;;;24.80;57.60;;;;;;4983804;28;19971;-67
2021/09/07 13:18:12;;;;;;;;;;;24.80;57.60;;;;;;4978476;28;20367;-67
2021/09/07 13:20:39;;;;;;;;;;;24.80;57.60;;;;;;4991142;28;19926;-67
2021/09/07 13:23:07;;;;;;;;;;;24.80;57.60;;;;;;4971045;28;19955;-67
2021/09/07 13:25:34;;;;;;;;;;;24.80;57.60;;;;;;4989293;28;19926;-68
2021/09/07 13:28:01;;;;;;;;;;;24.70;57.60;;;;;;5015012;28;19995;-68
2021/09/07 13:30:30;;;;;;;;;;;24.80;57.70;;;;;;4991586;28;20027;-67
2021/09/07 13:32:57;;;;;;;;;;;24.80;57.70;;;;;;5000471;28;20433;-67
2021/09/07 13:35:24;;;;;;;;;;;24.80;57.80;;;;;;4974753;28;20018;-67
2021/09/07 13:37:51;;;;;;;;;;;24.70;57.70;;;;;;4991829;28;19925;-67
2021/09/07 13:40:18;;;;;;;;;;;24.80;57.90;;;;;;4974116;28;20382;-68
2021/09/07 13:42:45;;;;;;;;;;;24.70;57.80;;;;;;4991744;28;19934;-67
2021/09/07 13:45:12;;;;;;;;;;;24.70;58.40;;;;;;4993412;28;20329;-68
2021/09/07 13:47:39;;;;;;;;;;;24.70;58.00;;;;;;4991750;28;20362;-67
2021/09/07 13:50:07;;;;;;;;;;;24.70;58.10;;;;;;4992262;28;20022;-68
2021/09/07 13:52:35;;;;;;;;;;;24.70;58.10;;;;;;5005246;28;19926;-67
2021/09/07 13:55:02;;;;;;;;;;;24.60;58.20;;;;;;4992448;28;19930;-68
2021/09/07 13:57:30;;;;;;;;;;;24.70;58.20;;;;;;4992176;28;19940;-68
2021/09/07 13:59:58;;;;;;;;;;;24.60;58.20;;;;;;4992438;28;19926;-67
2021/09/07 14:02:25;;;;;;;;;;;24.60;58.30;;;;;;4985848;28;20009;-67
2021/09/07 14:04:52;;;;;;;;;;;24.60;58.40;;;;;;4992257;28;21326;-68
2021/09/07 14:07:19;;;;;;;;;;;24.60;58.40;;;;;;4992484;28;19926;-68
2021/09/07 14:09:46;;;;;;;;;;;24.60;58.40;;;;;;4992701;28;20409;-68
2021/09/07 14:12:13;;;;;;;;;;;24.60;58.50;;;;;;4991018;28;19969;-67
2021/09/07 14:14:40;;;;;;;;;;;24.60;58.30;;;;;;4992323;28;19980;-67
2021/09/07 14:17:27;;;;;;;;;;;24.60;58.30;;;;;;4992807;28;20008;-66
2021/09/07 14:19:54;;;;;;;;;;;24.60;58.30;;;;;;4990638;28;19971;-64
2021/09/07 14:22:21;;;;;;;;;;;24.60;58.20;;;;;;4992820;28;19971;-66
2021/09/07 14:24:48;;;;;;;;;;;24.60;58.20;;;;;;4992743;28;19929;-66
2021/09/07 14:27:15;;;;;;;;;;;24.60;58.40;;;;;;4992218;28;19933;-66